createdAt,value
2024-01-12T00:00:04.195Z,-3.79
2024-01-12T00:02:32.930Z,-3.78
2024-01-12T00:05:03.485Z,-3.75
2024-01-12T00:07:32.091Z,-3.76
2024-01-12T00:10:00.544Z,-3.78
2024-01-12T00:12:29.059Z,-3.88
2024-01-12T00:14:57.669Z,-3.90
2024-01-12T00:17:26.730Z,-3.91
2024-01-12T00:19:55.788Z,-3.89
2024-01-12T00:22:26.007Z,-3.97
2024-01-12T00:24:54.544Z,-4.00
2024-01-12T00:27:23.123Z,-4.04
2024-01-12T00:29:51.668Z,-4.02
2024-01-12T00:32:20.314Z,-4.05
2024-01-12T00:34:49.376Z,-4.11
2024-01-12T00:37:17.791Z,-4.14
2024-01-12T00:39:47.603Z,-4.11
2024-01-12T00:42:16.034Z,-4.15
2024-01-12T00:44:44.477Z,-4.15
2024-01-12T00:47:13.459Z,-4.11
2024-01-12T00:49:42.236Z,-4.07
2024-01-12T00:52:10.609Z,-4.10
2024-01-12T00:54:39.058Z,-4.19
2024-01-12T00:57:08.928Z,-4.16
2024-01-12T00:59:37.403Z,-4.18
2024-01-12T01:02:06.084Z,-4.22
2024-01-12T01:04:34.499Z,-4.25
2024-01-12T01:07:03.060Z,-4.27
2024-01-12T01:09:31.483Z,-4.37
2024-01-12T01:12:00.036Z,-4.30
2024-01-12T01:14:29.912Z,-4.39
2024-01-12T01:16:58.402Z,-4.29
2024-01-12T01:19:26.986Z,-4.39
2024-01-12T01:21:55.502Z,-4.39
2024-01-12T01:24:28.241Z,-4.38
2024-01-12T01:26:55.899Z,-4.41
2024-01-12T01:29:24.716Z,-4.37
2024-01-12T01:31:54.664Z,-4.44
2024-01-12T01:34:23.308Z,-4.42
2024-01-12T01:36:51.823Z,-4.32
2024-01-12T01:39:20.338Z,-4.32
2024-01-12T01:41:49.012Z,-4.43
2024-01-12T01:44:17.631Z,-4.45
2024-01-12T01:46:46.882Z,-4.42
2024-01-12T01:49:16.801Z,-4.43
2024-01-12T01:51:45.891Z,-4.39
2024-01-12T01:54:14.904Z,-4.41
2024-01-12T01:56:44.261Z,-4.48
2024-01-12T01:59:14.555Z,-4.50
2024-01-12T02:01:43.407Z,-4.51
2024-01-12T02:04:13.426Z,-4.51
2024-01-12T02:06:43.818Z,-4.53
2024-01-12T02:09:13.081Z,-4.61
2024-01-12T02:11:41.748Z,-4.57
2024-01-12T02:14:10.981Z,-4.59
2024-01-12T02:16:40.153Z,-4.62
2024-01-12T02:19:08.694Z,-4.67
2024-01-12T02:21:38.995Z,-4.66
2024-01-12T02:24:07.760Z,-4.65
2024-01-12T02:26:36.793Z,-4.64
2024-01-12T02:29:06.158Z,-4.65
2024-01-12T02:31:35.664Z,-4.70
2024-01-12T02:34:04.264Z,-4.70
2024-01-12T02:36:32.801Z,-4.73
2024-01-12T02:39:02.704Z,-4.76
2024-01-12T02:43:59.616Z,-4.80
2024-01-12T02:46:28.078Z,-4.76
2024-01-12T02:48:56.633Z,-4.78
2024-01-12T02:51:25.158Z,-4.74
2024-01-12T02:53:53.619Z,-4.71
2024-01-12T02:56:25.007Z,-4.67
2024-01-12T02:58:53.666Z,-4.64
2024-01-12T03:01:22.096Z,-4.66
2024-01-12T03:03:50.550Z,-4.66
2024-01-12T03:06:19.229Z,-4.75
2024-01-12T03:08:47.796Z,-4.77
2024-01-12T03:11:16.417Z,-4.80
2024-01-12T03:13:46.310Z,-4.85
2024-01-12T03:16:21.935Z,-4.90
2024-01-12T03:18:51.563Z,-4.88
2024-01-12T03:21:20.304Z,-4.87
2024-01-12T03:23:49.872Z,-4.81
2024-01-12T03:26:18.485Z,-4.84
2024-01-12T03:28:48.409Z,-4.93
2024-01-12T03:31:19.593Z,-4.87
2024-01-12T03:33:48.657Z,-4.89
2024-01-12T03:36:17.867Z,-4.84
2024-01-12T03:38:47.404Z,-4.90
2024-01-12T03:41:16.098Z,-4.92
2024-01-12T03:43:44.648Z,-4.96
2024-01-12T03:46:15.083Z,-4.93
2024-01-12T03:48:45.436Z,-4.87
2024-01-12T03:51:15.203Z,-4.80
2024-01-12T03:53:44.467Z,-4.76
2024-01-12T03:56:12.945Z,-4.66
2024-01-12T03:58:41.567Z,-4.60
2024-01-12T04:01:12.336Z,-4.55
2024-01-12T04:03:43.018Z,-4.54
2024-01-12T04:06:12.367Z,-4.48
2024-01-12T04:08:41.490Z,-4.40
2024-01-12T04:11:10.030Z,-4.34
2024-01-12T04:13:39.956Z,-4.27
2024-01-12T04:16:08.556Z,-4.20
2024-01-12T04:18:37.145Z,-4.15
2024-01-12T04:21:07.729Z,-4.09
2024-01-12T04:23:36.458Z,-4.04
2024-01-12T04:26:05.195Z,-3.98
2024-01-12T04:28:33.779Z,-3.93
2024-01-12T04:31:04.771Z,-3.87
2024-01-12T04:33:35.086Z,-3.82
2024-01-12T04:36:04.181Z,-3.76
2024-01-12T04:38:35.126Z,-3.69
2024-01-12T04:41:03.549Z,-3.65
2024-01-12T04:43:32.001Z,-3.61
2024-01-12T04:46:00.616Z,-3.58
2024-01-12T04:48:29.337Z,-3.54
2024-01-12T04:50:57.929Z,-3.52
2024-01-12T04:53:26.876Z,-3.48
2024-01-12T04:55:56.768Z,-3.42
2024-01-12T04:58:25.259Z,-3.37
2024-01-12T05:00:53.753Z,-3.32
2024-01-12T05:03:22.435Z,-3.31
2024-01-12T05:05:51.176Z,-3.28
2024-01-12T05:08:19.748Z,-3.25
2024-01-12T05:10:48.145Z,-3.21
2024-01-12T05:13:18.019Z,-3.17
2024-01-12T05:15:46.624Z,-3.14
2024-01-12T05:18:15.277Z,-3.11
2024-01-12T05:20:43.960Z,-3.10
2024-01-12T05:23:12.755Z,-3.09
2024-01-12T05:25:41.470Z,-3.07
2024-01-12T05:28:09.960Z,-3.01
2024-01-12T05:30:39.899Z,-2.98
2024-01-12T05:33:08.464Z,-2.92
2024-01-12T05:35:37.102Z,-2.93
2024-01-12T05:38:05.987Z,-2.90
2024-01-12T05:40:34.390Z,-2.90
2024-01-12T05:43:03.673Z,-2.88
2024-01-12T05:45:32.108Z,-2.87
2024-01-12T05:48:02.354Z,-2.83
2024-01-12T05:50:30.818Z,-2.79
2024-01-12T05:52:59.309Z,-2.79
2024-01-12T05:55:27.678Z,-2.79
2024-01-12T05:57:56.106Z,-2.77
2024-01-12T06:00:24.556Z,-2.73
2024-01-12T06:02:53.058Z,-2.69
2024-01-12T06:05:22.990Z,-2.68
2024-01-12T06:07:51.763Z,-2.64
2024-01-12T06:10:20.461Z,-2.60
2024-01-12T06:12:48.926Z,-2.57
2024-01-12T06:15:17.513Z,-2.56
2024-01-12T06:17:46.044Z,-2.56
2024-01-12T06:20:14.822Z,-2.55
2024-01-12T06:22:44.752Z,-2.51
2024-01-12T06:25:13.599Z,-2.47
2024-01-12T06:27:42.953Z,-2.44
2024-01-12T06:30:12.514Z,-2.45
2024-01-12T06:32:41.805Z,-2.42
2024-01-12T06:35:12.057Z,-2.39
2024-01-12T06:37:40.832Z,-2.36
2024-01-12T06:40:12.679Z,-2.32
2024-01-12T06:42:43.040Z,-2.31
2024-01-12T06:45:13.535Z,-2.31
2024-01-12T06:47:42.185Z,-2.31
2024-01-12T06:50:11.424Z,-2.26
2024-01-12T06:52:39.860Z,-2.25
2024-01-12T06:55:10.817Z,-2.22
2024-01-12T06:57:39.264Z,-2.24
2024-01-12T07:00:09.617Z,-2.22
2024-01-12T07:02:38.360Z,-2.26
2024-01-12T07:05:08.187Z,-2.29
2024-01-12T07:07:36.699Z,-2.28
2024-01-12T07:10:05.889Z,-2.26
2024-01-12T07:12:38.032Z,-2.23
2024-01-12T07:15:08.538Z,-2.22
2024-01-12T07:17:37.197Z,-2.23
2024-01-12T07:20:07.698Z,-2.20
2024-01-12T07:22:36.313Z,-2.18
2024-01-12T07:25:05.461Z,-2.17
2024-01-12T07:27:35.464Z,-2.14
2024-01-12T07:30:04.831Z,-2.13
2024-01-12T07:32:34.403Z,-2.14
2024-01-12T07:35:03.170Z,-2.17
2024-01-12T07:37:31.669Z,-2.14
2024-01-12T07:40:00.211Z,-2.11
2024-01-12T07:42:28.683Z,-2.07
2024-01-12T07:44:59.091Z,-2.08
2024-01-12T07:47:27.672Z,-2.06
2024-01-12T07:49:56.451Z,-2.02
2024-01-12T07:52:24.970Z,-2.00
2024-01-12T07:54:53.564Z,-1.99
2024-01-12T07:57:22.041Z,-1.98
2024-01-12T07:59:50.537Z,-1.96
2024-01-12T08:02:20.546Z,-1.92
2024-01-12T08:04:49.034Z,-1.91
2024-01-12T08:07:17.775Z,-1.87
2024-01-12T08:09:46.279Z,-1.87
2024-01-12T08:12:14.786Z,-1.84
2024-01-12T08:14:43.608Z,-1.82
2024-01-12T08:17:12.625Z,-1.78
2024-01-12T08:19:42.554Z,-1.79
2024-01-12T08:22:11.069Z,-1.76
2024-01-12T08:24:39.617Z,-1.75
2024-01-12T08:27:08.785Z,-1.72
2024-01-12T08:29:37.351Z,-1.69
2024-01-12T08:32:06.614Z,-1.66
2024-01-12T08:34:35.109Z,-1.62
2024-01-12T08:37:05.427Z,-1.60
2024-01-12T08:39:34.334Z,-1.56
2024-01-12T08:42:03.059Z,-1.57
2024-01-12T08:44:31.593Z,-1.54
2024-01-12T08:47:00.033Z,-1.51
2024-01-12T08:49:28.471Z,-1.48
2024-01-12T08:51:57.075Z,-1.45
2024-01-12T08:54:26.892Z,-1.41
2024-01-12T08:56:58.640Z,-1.36
2024-01-12T08:59:28.702Z,-1.33
2024-01-12T09:01:58.700Z,-1.33
2024-01-12T09:04:29.553Z,-1.32
2024-01-12T09:06:58.228Z,-1.31
2024-01-12T09:09:28.397Z,-1.28
2024-01-12T09:11:56.922Z,-1.25
2024-01-12T09:14:25.680Z,-1.21
2024-01-12T09:16:54.191Z,-1.22
2024-01-12T09:19:22.776Z,-1.17
2024-01-12T09:21:51.388Z,-1.13
2024-01-12T09:24:19.944Z,-1.10
2024-01-12T09:26:49.846Z,-1.12
2024-01-12T09:29:18.486Z,-1.09
2024-01-12T09:31:46.951Z,-1.07
2024-01-12T09:34:15.923Z,-1.05
2024-01-12T09:36:44.546Z,-1.05
2024-01-12T09:39:16.307Z,-1.07
2024-01-12T09:41:50.868Z,-1.02
2024-01-12T09:44:22.820Z,-1.04
2024-01-12T09:46:58.180Z,-0.99
2024-01-12T09:49:30.448Z,-0.93
2024-01-12T09:52:00.179Z,-0.92
2024-01-12T09:54:28.802Z,-0.88
2024-01-12T09:56:59.969Z,-0.86
2024-01-12T09:59:30.614Z,-0.82
2024-01-12T10:02:00.801Z,-0.78
2024-01-12T10:04:29.407Z,-0.77
2024-01-12T10:06:58.037Z,-0.75
2024-01-12T10:09:26.909Z,-0.77
2024-01-12T10:11:56.165Z,-0.77
2024-01-12T10:14:27.133Z,-0.80
2024-01-12T10:16:56.436Z,-0.79
2024-01-12T10:19:25.796Z,-0.76
2024-01-12T10:21:54.828Z,-0.74
2024-01-12T10:24:23.907Z,-0.70
2024-01-12T10:26:53.921Z,-0.69
2024-01-12T10:29:22.911Z,-0.62
2024-01-12T10:31:52.930Z,-0.61
2024-01-12T10:34:25.336Z,-0.59
2024-01-12T10:37:01.005Z,-0.59
2024-01-12T10:39:32.347Z,-0.54
2024-01-12T10:42:09.323Z,-0.53
2024-01-12T10:44:42.039Z,-0.49
2024-01-12T10:47:19.067Z,-0.43
2024-01-12T10:49:52.379Z,-0.43
2024-01-12T10:52:41.304Z,-0.45
2024-01-12T10:55:16.996Z,-0.41
2024-01-12T10:57:47.130Z,-0.44
2024-01-12T11:00:18.293Z,-0.39
2024-01-12T11:02:51.920Z,-0.39
2024-01-12T11:05:23.787Z,-0.40
2024-01-12T11:07:54.458Z,-0.36
2024-01-12T11:10:23.898Z,-0.34
2024-01-12T11:12:57.896Z,-0.33
2024-01-12T11:15:28.792Z,-0.29
2024-01-12T11:17:59.877Z,-0.27
2024-01-12T11:20:28.489Z,-0.26
2024-01-12T11:22:57.116Z,-0.24
2024-01-12T11:25:27.324Z,-0.22
2024-01-12T11:27:58.817Z,-0.20
2024-01-12T11:30:29.796Z,-0.17
2024-01-12T11:33:08.324Z,-0.18
2024-01-12T11:35:40.799Z,-0.16
2024-01-12T11:38:11.591Z,-0.16
2024-01-12T11:40:44.107Z,-0.18
2024-01-12T11:43:18.964Z,-0.16
2024-01-12T11:45:48.758Z,-0.15
2024-01-12T11:48:18.866Z,-0.14
2024-01-12T11:50:48.057Z,-0.12
2024-01-12T11:53:16.633Z,-0.11
2024-01-12T11:55:45.272Z,-0.11
2024-01-12T11:58:14.174Z,-0.09
2024-01-12T12:00:42.974Z,-0.15
2024-01-12T12:03:11.511Z,-0.22
2024-01-12T12:05:41.445Z,-0.27
2024-01-12T12:08:11.448Z,-0.26
2024-01-12T12:10:46.359Z,-0.23
2024-01-12T12:13:16.377Z,-0.23
2024-01-12T12:15:45.767Z,-0.17
2024-01-12T12:18:15.424Z,-0.11
2024-01-12T12:20:45.711Z,-0.09
2024-01-12T12:23:15.108Z,-0.07
2024-01-12T12:25:45.676Z,-0.05
2024-01-12T12:28:15.554Z,-0.02
2024-01-12T12:30:45.261Z,-0.02
2024-01-12T12:33:14.028Z,-0.02
2024-01-12T12:35:44.053Z,-0.05
2024-01-12T12:38:12.519Z,-0.04
2024-01-12T12:40:41.400Z,-0.02
2024-01-12T12:43:10.054Z,0.00
2024-01-12T12:45:38.948Z,0.00
2024-01-12T12:48:08.322Z,0.05
2024-01-12T12:50:37.828Z,0.04
2024-01-12T12:53:08.057Z,0.08
2024-01-12T12:55:37.021Z,0.09
2024-01-12T12:58:06.029Z,0.08
2024-01-12T13:00:34.619Z,0.10
2024-01-12T13:03:03.170Z,0.13
2024-01-12T13:05:31.767Z,0.16
2024-01-12T13:08:00.353Z,0.20
2024-01-12T13:10:30.188Z,0.22
2024-01-12T13:12:59.336Z,0.25
2024-01-12T13:15:27.910Z,0.27
2024-01-12T13:17:56.498Z,0.29
2024-01-12T13:20:25.234Z,0.32
2024-01-12T13:22:54.171Z,0.32
2024-01-12T13:25:22.939Z,0.32
2024-01-12T13:27:53.105Z,0.34
2024-01-12T13:30:21.707Z,0.34
2024-01-12T13:32:50.433Z,0.35
2024-01-12T13:35:19.104Z,0.37
2024-01-12T13:37:47.642Z,0.36
2024-01-12T13:40:16.378Z,0.36
2024-01-12T13:42:46.200Z,0.39
2024-01-12T13:45:16.544Z,0.40
2024-01-12T13:47:45.122Z,0.42
2024-01-12T13:50:13.823Z,0.38
2024-01-12T13:52:42.443Z,0.38
2024-01-12T13:55:11.247Z,0.38
2024-01-12T13:57:39.710Z,0.40
2024-01-12T14:00:12.591Z,0.40
2024-01-12T14:02:44.584Z,0.40
2024-01-12T14:05:17.775Z,0.33
2024-01-12T14:07:47.760Z,0.36
2024-01-12T14:10:16.543Z,0.37
2024-01-12T14:12:45.559Z,0.37
2024-01-12T14:15:14.579Z,0.30
2024-01-12T14:17:44.751Z,0.30
2024-01-12T14:20:14.636Z,0.31
2024-01-12T14:22:43.397Z,0.31
2024-01-12T14:25:12.373Z,0.29
2024-01-12T14:27:42.970Z,0.31
2024-01-12T14:30:13.592Z,0.33
2024-01-12T14:32:44.792Z,0.32
2024-01-12T14:35:13.467Z,0.34
2024-01-12T14:37:41.898Z,0.31
2024-01-12T14:40:12.186Z,0.34
2024-01-12T14:42:41.484Z,0.36
2024-01-12T14:45:11.014Z,0.37
2024-01-12T14:47:40.820Z,0.37
2024-01-12T14:50:12.881Z,0.38
2024-01-12T14:52:43.090Z,0.36
2024-01-12T14:55:12.605Z,0.37
2024-01-12T14:57:41.373Z,0.37
2024-01-12T15:00:11.645Z,0.37
2024-01-12T15:02:40.793Z,0.38
2024-01-12T15:05:12.730Z,0.38
2024-01-12T15:07:43.845Z,0.39
2024-01-12T15:10:13.467Z,0.43
2024-01-12T15:12:42.265Z,0.47
2024-01-12T15:15:11.914Z,0.42
2024-01-12T15:17:41.756Z,0.40
2024-01-12T15:20:13.822Z,0.39
2024-01-12T15:22:43.662Z,0.40
2024-01-12T15:25:12.225Z,0.44
2024-01-12T15:27:40.740Z,0.46
2024-01-12T15:30:11.798Z,0.42
2024-01-12T15:32:41.594Z,0.41
2024-01-12T15:35:11.965Z,0.40
2024-01-12T15:37:41.611Z,0.39
2024-01-12T15:40:12.189Z,0.41
2024-01-12T15:42:45.537Z,0.44
2024-01-12T15:45:18.669Z,0.47
2024-01-12T15:47:47.838Z,0.45
2024-01-12T15:50:18.019Z,0.45
2024-01-12T15:52:46.757Z,0.45
2024-01-12T15:55:15.438Z,0.47
2024-01-12T15:57:44.046Z,0.47
2024-01-12T16:00:14.655Z,0.44
2024-01-12T16:02:43.505Z,0.41
2024-01-12T16:05:12.535Z,0.42
2024-01-12T16:07:43.009Z,0.41
2024-01-12T16:10:12.358Z,0.45
2024-01-12T16:12:41.275Z,0.35
2024-01-12T16:15:11.490Z,0.34
2024-01-12T16:17:42.458Z,0.39
2024-01-12T16:20:11.601Z,0.37
2024-01-12T16:22:41.565Z,0.40
2024-01-12T16:25:11.270Z,0.42
2024-01-12T16:27:39.870Z,0.35
2024-01-12T16:30:09.891Z,0.34
2024-01-12T16:32:38.598Z,0.35
2024-01-12T16:35:08.468Z,0.34
2024-01-12T16:37:37.021Z,0.29
2024-01-12T16:40:09.241Z,0.31
2024-01-12T16:42:37.637Z,0.29
2024-01-12T16:45:07.895Z,0.28
2024-01-12T16:47:36.456Z,0.31
2024-01-12T16:50:05.748Z,0.27
2024-01-12T16:52:39.765Z,0.32
2024-01-12T16:55:10.728Z,0.31
2024-01-12T16:57:40.156Z,0.25
2024-01-12T17:00:11.439Z,0.21
2024-01-12T17:02:41.654Z,0.22
2024-01-12T17:05:11.549Z,0.18
2024-01-12T17:07:40.087Z,0.15
2024-01-12T17:10:11.648Z,0.13
2024-01-12T17:12:40.337Z,0.15
2024-01-12T17:15:10.917Z,0.15
2024-01-12T17:17:39.468Z,0.12
2024-01-12T17:20:11.602Z,0.13
2024-01-12T17:22:40.636Z,0.15
2024-01-12T17:25:11.477Z,0.16
2024-01-12T17:27:39.976Z,0.20
2024-01-12T17:30:10.177Z,0.24
2024-01-12T17:32:38.830Z,0.15
2024-01-12T17:35:11.251Z,0.20
2024-01-12T17:37:42.497Z,0.22
2024-01-12T17:40:13.954Z,0.21
2024-01-12T17:42:42.374Z,0.18
2024-01-12T17:45:11.555Z,0.21
2024-01-12T17:47:40.278Z,0.22
2024-01-12T17:50:10.028Z,0.22
2024-01-12T17:52:38.598Z,0.24
2024-01-12T17:55:07.521Z,0.25
2024-01-12T17:57:37.448Z,0.28
2024-01-12T18:00:07.992Z,0.18
2024-01-12T18:02:37.032Z,0.24
2024-01-12T18:05:06.616Z,0.21
2024-01-12T18:07:35.445Z,0.19
2024-01-12T18:10:04.263Z,0.15
2024-01-12T18:12:32.830Z,0.18
2024-01-12T18:15:02.754Z,0.18
2024-01-12T18:17:31.398Z,0.17
2024-01-12T18:20:00.025Z,0.20
2024-01-12T18:22:28.814Z,0.22
2024-01-12T18:24:57.380Z,0.24
2024-01-12T18:27:25.791Z,0.19
2024-01-12T18:29:55.919Z,0.21
2024-01-12T18:32:26.011Z,0.23
2024-01-12T18:34:55.842Z,0.26
2024-01-12T18:37:24.397Z,0.24
2024-01-12T18:39:54.328Z,0.24
2024-01-12T18:42:23.836Z,0.24
2024-01-12T18:44:52.350Z,0.27
2024-01-12T18:47:21.049Z,0.27
2024-01-12T18:49:52.265Z,0.25
2024-01-12T18:52:21.445Z,0.23
2024-01-12T18:54:50.181Z,0.22
2024-01-12T18:57:18.780Z,0.11
2024-01-12T18:59:47.943Z,0.18
2024-01-12T19:02:16.526Z,0.18
2024-01-12T19:04:47.625Z,0.24
2024-01-12T19:07:19.165Z,0.25
2024-01-12T19:09:47.993Z,0.28
2024-01-12T19:12:17.037Z,0.30
2024-01-12T19:14:45.606Z,0.30
2024-01-12T19:17:14.478Z,0.29
2024-01-12T19:19:43.356Z,0.32
2024-01-12T19:22:11.905Z,0.33
2024-01-12T19:24:45.212Z,0.33
2024-01-12T19:27:13.941Z,0.31
2024-01-12T19:29:44.035Z,0.32
2024-01-12T19:32:14.336Z,0.31
2024-01-12T19:34:43.160Z,0.31
2024-01-12T19:37:11.644Z,0.32
2024-01-12T19:39:41.542Z,0.30
2024-01-12T19:42:10.869Z,0.32
2024-01-12T19:44:40.046Z,0.32
2024-01-12T19:47:08.608Z,0.30
2024-01-12T19:49:38.494Z,0.32
2024-01-12T19:52:07.785Z,0.35
2024-01-12T19:54:36.487Z,0.34
2024-01-12T19:57:07.228Z,0.36
2024-01-12T19:59:35.810Z,0.39
2024-01-12T20:02:04.603Z,0.29
2024-01-12T20:04:41.435Z,0.28
2024-01-12T20:07:15.681Z,0.31
2024-01-12T20:09:44.456Z,0.29
2024-01-12T20:12:14.751Z,0.27
2024-01-12T20:14:45.650Z,0.30
2024-01-12T20:17:14.328Z,0.32
2024-01-12T20:19:43.009Z,0.31
2024-01-12T20:22:12.989Z,0.34
2024-01-12T20:24:41.603Z,0.31
2024-01-12T20:27:10.147Z,0.33
2024-01-12T20:29:40.196Z,0.31
2024-01-12T20:32:08.683Z,0.31
2024-01-12T20:34:37.361Z,0.34
2024-01-12T20:37:06.241Z,0.33
2024-01-12T20:39:34.773Z,0.32
2024-01-12T20:42:03.726Z,0.35
2024-01-12T20:44:32.422Z,0.36
2024-01-12T20:47:02.803Z,0.37
2024-01-12T20:49:33.205Z,0.36
2024-01-12T20:52:01.913Z,0.36
2024-01-12T20:54:30.461Z,0.37
2024-01-12T20:56:58.967Z,0.37
2024-01-12T20:59:29.746Z,0.39
2024-01-12T21:02:01.315Z,0.37
2024-01-12T21:04:30.043Z,0.34
2024-01-12T21:06:58.688Z,0.32
2024-01-12T21:09:27.289Z,0.31
2024-01-12T21:11:55.793Z,0.33
2024-01-12T21:14:29.371Z,0.31
2024-01-12T21:16:58.059Z,0.33
2024-01-12T21:19:28.225Z,0.33
2024-01-12T21:21:56.971Z,0.34
2024-01-12T21:24:25.549Z,0.32
2024-01-12T21:26:54.083Z,0.38
2024-01-12T21:29:22.678Z,0.37
2024-01-12T21:31:51.331Z,0.37
2024-01-12T21:34:19.971Z,0.32
2024-01-12T21:36:50.205Z,0.35
2024-01-12T21:39:18.644Z,0.37
2024-01-12T21:41:47.227Z,0.38
2024-01-12T21:44:15.805Z,0.33
2024-01-12T21:46:44.360Z,0.37
2024-01-12T21:49:13.009Z,0.38
2024-01-12T21:51:41.530Z,0.42
2024-01-12T21:54:11.537Z,0.39
2024-01-12T21:56:40.115Z,0.41
2024-01-12T21:59:08.532Z,0.38
2024-01-12T22:01:37.061Z,0.39
2024-01-12T22:04:06.149Z,0.41
2024-01-12T22:06:34.792Z,0.43
2024-01-12T22:09:03.422Z,0.42
2024-01-12T22:11:33.306Z,0.45
2024-01-12T22:14:03.951Z,0.43
2024-01-12T22:16:32.593Z,0.42
2024-01-12T22:19:01.466Z,0.42
2024-01-12T22:21:30.128Z,0.38
2024-01-12T22:23:58.688Z,0.39
2024-01-12T22:26:27.253Z,0.41
2024-01-12T22:28:57.159Z,0.39
2024-01-12T22:31:26.110Z,0.41
2024-01-12T22:33:55.013Z,0.40
2024-01-12T22:36:23.826Z,0.41
2024-01-12T22:38:52.773Z,0.40
2024-01-12T22:41:21.419Z,0.43
2024-01-12T22:43:50.107Z,0.49
2024-01-12T22:46:20.037Z,0.48
2024-01-12T22:48:49.141Z,0.44
2024-01-12T22:51:17.829Z,0.47
2024-01-12T22:53:46.448Z,0.43
2024-01-12T22:56:15.494Z,0.47
2024-01-12T22:58:43.869Z,0.43
2024-01-12T23:01:12.403Z,0.45
2024-01-12T23:03:43.081Z,0.47
2024-01-12T23:06:11.956Z,0.43
2024-01-12T23:08:40.615Z,0.43
2024-01-12T23:11:09.064Z,0.44
2024-01-12T23:13:37.535Z,0.40
2024-01-12T23:16:06.752Z,0.43
2024-01-12T23:18:35.371Z,0.44
2024-01-12T23:21:07.074Z,0.42
2024-01-12T23:23:35.699Z,0.43
2024-01-12T23:26:04.484Z,0.47
2024-01-12T23:28:33.140Z,0.46
2024-01-12T23:31:01.828Z,0.42
2024-01-12T23:33:30.694Z,0.47
2024-01-12T23:36:00.380Z,0.47
2024-01-12T23:38:34.748Z,0.47
2024-01-12T23:41:04.755Z,0.42
2024-01-12T23:43:33.799Z,0.45
2024-01-12T23:46:02.508Z,0.44
2024-01-12T23:48:36.926Z,0.48
2024-01-12T23:51:31.538Z,0.49
2024-01-12T23:54:02.104Z,0.52
2024-01-12T23:56:30.684Z,0.53
2024-01-12T23:58:59.174Z,0.55
